createdAt,value
2023-03-16T00:00:13.746Z,11.93
2023-03-16T00:02:42.925Z,11.60
2023-03-16T00:05:11.213Z,11.23
2023-03-16T00:07:39.707Z,11.10
2023-03-16T00:10:08.699Z,11.63
2023-03-16T00:12:36.470Z,10.83
2023-03-16T00:15:06.786Z,10.47
2023-03-16T00:17:34.851Z,10.87
2023-03-16T00:20:06.515Z,11.27
2023-03-16T00:22:35.519Z,10.90
2023-03-16T00:25:04.965Z,11.87
2023-03-16T00:27:32.735Z,12.03
2023-03-16T00:30:03.711Z,11.60
2023-03-16T00:32:36.153Z,10.00
2023-03-16T00:35:09.152Z,10.73
2023-03-16T00:37:39.762Z,11.30
2023-03-16T00:40:11.678Z,10.30
2023-03-16T00:42:39.528Z,11.43
2023-03-16T00:45:10.950Z,12.23
2023-03-16T00:47:42.190Z,11.80
2023-03-16T00:50:11.767Z,11.47
2023-03-16T00:52:39.535Z,11.57
2023-03-16T00:55:08.570Z,11.20
2023-03-16T00:57:37.618Z,11.00
2023-03-16T01:00:12.787Z,10.70
2023-03-16T01:02:42.107Z,10.90
2023-03-16T01:05:10.620Z,10.87
2023-03-16T01:07:38.978Z,10.33
2023-03-16T01:10:07.856Z,9.93
2023-03-16T01:12:35.700Z,10.33
2023-03-16T01:15:04.587Z,10.97
2023-03-16T01:17:35.107Z,10.90
2023-03-16T01:20:11.804Z,11.03
2023-03-16T01:22:39.797Z,11.53
2023-03-16T01:25:09.569Z,10.67
2023-03-16T01:27:37.870Z,11.33
2023-03-16T01:30:06.695Z,11.47
2023-03-16T01:32:35.383Z,11.30
2023-03-16T01:35:05.985Z,11.20
2023-03-16T01:37:33.638Z,11.07
2023-03-16T01:40:13.865Z,10.83
2023-03-16T01:42:50.005Z,11.73
2023-03-16T01:45:57.016Z,10.30
2023-03-16T01:48:27.204Z,11.13
2023-03-16T01:50:58.039Z,11.13
2023-03-16T01:53:26.873Z,11.03
2023-03-16T01:55:55.628Z,11.30
2023-03-16T01:58:24.020Z,11.77
2023-03-16T02:00:52.589Z,11.63
2023-03-16T02:03:23.876Z,10.73
2023-03-16T02:06:10.288Z,12.30
2023-03-16T02:08:43.794Z,11.33
2023-03-16T02:11:12.483Z,10.90
2023-03-16T02:14:09.156Z,11.17
2023-03-16T02:16:37.234Z,11.33
2023-03-16T02:19:11.845Z,10.73
2023-03-16T02:21:48.656Z,11.60
2023-03-16T02:24:16.462Z,11.73
2023-03-16T02:26:49.571Z,11.83
2023-03-16T02:29:33.863Z,11.57
2023-03-16T02:32:05.480Z,11.50
2023-03-16T02:34:33.478Z,11.73
2023-03-16T02:37:02.792Z,12.00
2023-03-16T02:39:31.640Z,12.80
2023-03-16T02:42:02.709Z,11.37
2023-03-16T02:44:34.699Z,12.60
2023-03-16T02:47:13.248Z,12.13
2023-03-16T02:49:43.793Z,12.33
2023-03-16T02:52:12.616Z,11.63
2023-03-16T02:54:40.539Z,11.43
2023-03-16T02:57:10.091Z,12.97
2023-03-16T02:59:38.021Z,12.70
2023-03-16T03:02:09.214Z,13.40
2023-03-16T03:04:38.858Z,12.57
2023-03-16T03:07:07.704Z,12.63
2023-03-16T03:09:53.657Z,12.63
2023-03-16T03:12:21.728Z,12.30
2023-03-16T03:14:50.258Z,12.87
2023-03-16T03:17:30.339Z,12.60
2023-03-16T03:20:00.573Z,13.13
2023-03-16T03:22:28.770Z,13.87
2023-03-16T03:24:56.670Z,13.00
2023-03-16T03:27:24.728Z,12.40
2023-03-16T03:29:54.502Z,12.33
2023-03-16T03:32:23.730Z,13.00
2023-03-16T03:34:52.903Z,13.07
2023-03-16T03:37:20.623Z,13.70
2023-03-16T03:39:48.917Z,13.17
2023-03-16T03:42:17.442Z,12.77
2023-03-16T03:44:46.809Z,13.37
2023-03-16T03:47:14.488Z,12.57
2023-03-16T03:49:45.856Z,12.30
2023-03-16T03:52:13.978Z,12.30
2023-03-16T03:54:41.651Z,13.37
2023-03-16T03:57:19.420Z,13.53
2023-03-16T03:59:48.746Z,13.13
2023-03-16T04:02:22.324Z,13.07
2023-03-16T04:04:54.964Z,13.93
2023-03-16T04:07:22.979Z,13.30
2023-03-16T04:09:54.246Z,13.83
2023-03-16T04:12:28.058Z,12.83
2023-03-16T04:14:56.310Z,13.93
2023-03-16T04:17:25.430Z,14.33
2023-03-16T04:19:55.684Z,14.30
2023-03-16T04:22:23.525Z,13.77
2023-03-16T04:24:52.954Z,13.90
2023-03-16T04:27:22.092Z,14.03
2023-03-16T04:29:49.809Z,13.47
2023-03-16T04:32:17.679Z,13.73
2023-03-16T04:34:48.218Z,14.13
2023-03-16T04:37:19.472Z,13.73
2023-03-16T04:39:48.236Z,13.17
2023-03-16T04:42:16.020Z,14.57
2023-03-16T04:44:45.521Z,14.00
2023-03-16T04:47:17.054Z,13.27
2023-03-16T04:49:46.513Z,12.87
2023-03-16T04:52:14.445Z,13.40
2023-03-16T04:54:44.374Z,14.67
2023-03-16T04:57:18.976Z,14.50
2023-03-16T04:59:49.502Z,14.57
2023-03-16T05:02:24.516Z,13.43
2023-03-16T05:04:52.864Z,14.60
2023-03-16T05:07:21.125Z,14.43
2023-03-16T05:09:55.498Z,14.93
2023-03-16T05:12:23.391Z,13.97
2023-03-16T05:14:55.578Z,14.40
2023-03-16T05:17:43.355Z,13.67
2023-03-16T05:20:16.219Z,14.77
2023-03-16T05:22:50.258Z,15.33
2023-03-16T05:25:25.500Z,14.93
2023-03-16T05:27:55.614Z,14.53
2023-03-16T05:30:31.174Z,14.50
2023-03-16T05:33:02.874Z,15.33
2023-03-16T05:35:30.870Z,14.73
2023-03-16T05:38:05.228Z,13.93
2023-03-16T05:40:37.489Z,14.50
2023-03-16T05:43:28.767Z,14.10
2023-03-16T05:45:56.965Z,14.47
2023-03-16T05:48:26.369Z,13.40
2023-03-16T05:50:57.473Z,14.47
2023-03-16T05:53:29.691Z,13.03
2023-03-16T05:56:06.874Z,13.70
2023-03-16T05:58:39.254Z,14.67
2023-03-16T06:01:09.683Z,14.83
2023-03-16T06:03:37.566Z,13.73
2023-03-16T06:06:07.362Z,14.37
2023-03-16T06:08:42.882Z,12.10
2023-03-16T06:11:15.094Z,13.73
2023-03-16T06:13:43.484Z,13.27
2023-03-16T06:16:14.294Z,13.57
2023-03-16T06:18:42.251Z,13.43
2023-03-16T06:21:11.268Z,15.00
2023-03-16T06:23:40.289Z,15.97
2023-03-16T06:26:09.783Z,15.90
2023-03-16T06:28:42.639Z,15.77
2023-03-16T06:31:11.125Z,15.93
2023-03-16T06:33:44.708Z,15.47
2023-03-16T06:36:13.920Z,14.27
2023-03-16T06:38:48.589Z,14.57
2023-03-16T06:41:26.859Z,14.23
2023-03-16T06:43:57.290Z,13.13
2023-03-16T06:46:25.396Z,12.80
2023-03-16T06:48:53.716Z,12.67
2023-03-16T06:51:22.035Z,12.90
2023-03-16T06:53:51.188Z,11.40
2023-03-16T06:56:19.606Z,11.23
2023-03-16T06:58:48.300Z,10.30
2023-03-16T07:01:17.947Z,12.33
2023-03-16T07:03:46.066Z,11.43
2023-03-16T07:06:23.131Z,11.73
2023-03-16T07:08:51.532Z,11.13
2023-03-16T07:11:21.267Z,11.43
2023-03-16T07:13:49.820Z,11.50
2023-03-16T07:16:21.941Z,11.43
2023-03-16T07:18:50.083Z,11.87
2023-03-16T07:21:22.896Z,11.73
2023-03-16T07:23:53.794Z,12.03
2023-03-16T07:26:25.764Z,12.00
2023-03-16T07:28:58.211Z,12.03
2023-03-16T07:31:28.173Z,11.30
2023-03-16T07:33:58.332Z,12.07
2023-03-16T07:36:34.748Z,11.53
2023-03-16T07:39:06.160Z,12.00
2023-03-16T07:41:35.880Z,11.93
2023-03-16T07:44:16.158Z,12.73
2023-03-16T07:46:49.493Z,11.90
2023-03-16T07:49:18.194Z,13.70
2023-03-16T07:51:48.002Z,13.80
2023-03-16T07:54:18.840Z,13.47
2023-03-16T07:56:49.519Z,15.40
2023-03-16T07:59:28.711Z,14.40
2023-03-16T08:01:58.454Z,13.47
2023-03-16T08:04:26.355Z,14.83
2023-03-16T08:07:01.092Z,14.20
2023-03-16T08:09:43.614Z,14.05
2023-03-16T08:12:16.049Z,15.77
2023-03-16T08:14:45.534Z,16.27
2023-03-16T08:17:22.485Z,16.15
2023-03-16T08:19:51.306Z,14.38
2023-03-16T08:22:22.970Z,13.82
2023-03-16T08:24:52.067Z,15.40
2023-03-16T08:27:20.684Z,16.88
2023-03-16T08:29:54.529Z,17.38
2023-03-16T08:32:27.907Z,15.88
2023-03-16T08:34:57.127Z,17.20
2023-03-16T08:37:25.932Z,16.95
2023-03-16T08:39:56.277Z,16.60
2023-03-16T08:42:25.521Z,17.25
2023-03-16T08:45:00.846Z,17.25
2023-03-16T08:47:33.245Z,16.58
2023-03-16T08:50:01.724Z,16.42
2023-03-16T08:52:29.473Z,17.60
2023-03-16T08:55:03.309Z,17.63
2023-03-16T08:57:32.774Z,16.83
2023-03-16T09:00:04.190Z,17.40
2023-03-16T09:02:33.567Z,15.90
2023-03-16T09:05:02.753Z,15.70
2023-03-16T09:07:30.641Z,16.65
2023-03-16T09:09:58.371Z,16.27
2023-03-16T09:12:26.780Z,17.05
2023-03-16T09:14:55.372Z,17.48
2023-03-16T09:17:23.157Z,17.35
2023-03-16T09:19:55.006Z,16.42
2023-03-16T09:22:25.647Z,16.70
2023-03-16T09:24:53.720Z,16.63
2023-03-16T09:27:22.467Z,16.85
2023-03-16T09:29:50.987Z,16.13
2023-03-16T09:32:18.925Z,18.02
2023-03-16T09:34:47.457Z,17.08
2023-03-16T09:37:16.495Z,16.20
2023-03-16T09:39:45.638Z,15.88
2023-03-16T09:42:20.822Z,16.65
2023-03-16T09:45:01.018Z,16.23
2023-03-16T09:47:32.083Z,15.73
2023-03-16T09:50:04.126Z,15.32
2023-03-16T09:52:44.708Z,15.98
2023-03-16T09:55:27.681Z,16.20
2023-03-16T09:57:58.853Z,15.15
2023-03-16T10:00:29.733Z,14.90
2023-03-16T10:03:11.240Z,14.95
2023-03-16T10:05:40.994Z,14.05
2023-03-16T10:08:15.047Z,14.32
2023-03-16T10:10:59.914Z,13.68
2023-03-16T10:13:35.310Z,13.23
2023-03-16T10:16:09.695Z,13.00
2023-03-16T10:18:44.963Z,11.40
2023-03-16T10:21:15.163Z,10.43
2023-03-16T10:23:45.116Z,9.05
2023-03-16T10:26:22.932Z,8.35
2023-03-16T10:28:50.929Z,8.43
2023-03-16T10:31:22.922Z,8.43
2023-03-16T10:33:55.594Z,9.85
2023-03-16T10:36:30.504Z,9.27
2023-03-16T10:39:02.984Z,8.77
2023-03-16T10:41:33.500Z,8.40
2023-03-16T10:44:07.553Z,8.80
2023-03-16T10:46:40.431Z,8.43
2023-03-16T10:49:22.534Z,9.35
2023-03-16T10:51:51.284Z,9.77
2023-03-16T10:54:28.068Z,8.93
2023-03-16T10:56:56.685Z,9.55
2023-03-16T10:59:31.955Z,8.55
2023-03-16T11:02:02.939Z,8.52
2023-03-16T11:04:33.636Z,7.88
2023-03-16T11:07:02.009Z,8.40
2023-03-16T11:09:35.558Z,8.25
2023-03-16T11:12:15.403Z,8.10
2023-03-16T11:14:46.059Z,8.02
2023-03-16T11:17:17.818Z,7.70
2023-03-16T11:19:52.550Z,7.50
2023-03-16T11:22:24.109Z,8.07
2023-03-16T11:24:58.194Z,7.78
2023-03-16T11:27:27.864Z,7.57
2023-03-16T11:30:09.590Z,8.07
2023-03-16T11:32:40.300Z,7.93
2023-03-16T11:35:18.295Z,8.40
2023-03-16T11:38:12.688Z,7.85
2023-03-16T11:40:55.936Z,8.38
2023-03-16T11:43:53.078Z,8.32
2023-03-16T11:46:24.576Z,8.00
2023-03-16T11:49:12.855Z,8.10
2023-03-16T11:51:49.548Z,8.40
2023-03-16T11:54:42.782Z,8.25
2023-03-16T11:57:30.786Z,8.15
2023-03-16T12:00:10.569Z,7.78
2023-03-16T12:02:55.929Z,7.88
2023-03-16T12:05:47.714Z,8.25
2023-03-16T12:08:30.539Z,7.35
2023-03-16T12:11:03.435Z,8.02
2023-03-16T12:13:43.358Z,8.32
2023-03-16T12:16:19.669Z,7.55
2023-03-16T12:18:53.161Z,7.18
2023-03-16T12:21:25.706Z,7.20
2023-03-16T12:23:55.360Z,6.22
2023-03-16T12:26:29.732Z,6.55
2023-03-16T12:29:00.071Z,6.65
2023-03-16T12:31:37.823Z,6.55
2023-03-16T12:34:14.632Z,7.00
2023-03-16T12:36:58.756Z,6.38
2023-03-16T12:39:50.339Z,7.25
2023-03-16T12:42:35.832Z,6.43
2023-03-16T12:45:12.551Z,6.57
2023-03-16T12:47:52.627Z,6.65
2023-03-16T12:50:21.435Z,6.20
2023-03-16T12:52:52.012Z,6.38
2023-03-16T12:55:21.654Z,6.40
2023-03-16T12:57:52.142Z,5.93
2023-03-16T13:00:34.621Z,6.80
2023-03-16T13:03:04.857Z,5.93
2023-03-16T13:05:35.098Z,6.05
2023-03-16T13:08:09.879Z,5.93
2023-03-16T13:10:38.701Z,5.38
2023-03-16T13:13:12.925Z,6.25
2023-03-16T13:16:05.037Z,5.97
2023-03-16T13:18:41.772Z,5.85
2023-03-16T13:21:17.769Z,6.38
2023-03-16T13:24:14.663Z,6.15
2023-03-16T13:26:47.482Z,6.13
2023-03-16T13:29:23.778Z,5.88
2023-03-16T13:31:53.591Z,6.20
2023-03-16T13:34:25.372Z,6.30
2023-03-16T13:36:57.784Z,6.38
2023-03-16T13:39:28.176Z,6.18
2023-03-16T13:42:01.504Z,6.63
2023-03-16T13:44:30.615Z,6.85
2023-03-16T13:46:58.904Z,5.90
2023-03-16T13:49:28.701Z,6.45
2023-03-16T13:51:57.027Z,6.65
2023-03-16T13:54:28.026Z,6.45
2023-03-16T13:56:58.785Z,6.55
2023-03-16T13:59:27.339Z,6.25
2023-03-16T14:02:02.155Z,6.35
2023-03-16T14:04:34.011Z,5.63
2023-03-16T14:07:04.507Z,5.53
2023-03-16T14:09:34.880Z,6.47
2023-03-16T14:12:06.851Z,5.85
2023-03-16T14:14:41.102Z,5.45
2023-03-16T14:17:13.633Z,5.20
2023-03-16T14:19:47.094Z,5.25
2023-03-16T14:22:17.218Z,5.20
2023-03-16T14:24:47.982Z,4.82
2023-03-16T14:27:22.381Z,6.32
2023-03-16T14:29:58.038Z,5.88
2023-03-16T14:32:29.460Z,5.70
2023-03-16T14:35:14.665Z,4.93
2023-03-16T14:37:43.651Z,4.60
2023-03-16T14:40:24.743Z,4.28
2023-03-16T14:42:53.786Z,4.85
2023-03-16T14:45:22.896Z,5.05
2023-03-16T14:47:53.684Z,5.55
2023-03-16T14:50:26.362Z,4.70
2023-03-16T14:52:57.899Z,4.80
2023-03-16T14:55:26.053Z,4.55
2023-03-16T14:57:53.906Z,4.82
2023-03-16T15:00:23.578Z,4.28
2023-03-16T15:03:01.864Z,4.20
2023-03-16T15:05:36.610Z,4.25
2023-03-16T15:08:07.348Z,4.25
2023-03-16T15:10:37.144Z,4.25
2023-03-16T15:13:16.883Z,4.30
2023-03-16T15:15:46.016Z,3.80
2023-03-16T15:18:14.039Z,3.97
2023-03-16T15:20:46.106Z,4.13
2023-03-16T15:23:17.495Z,3.95
2023-03-16T15:25:46.611Z,4.03
2023-03-16T15:28:17.229Z,3.40
2023-03-16T15:30:46.176Z,3.60
2023-03-16T15:33:14.636Z,3.88
2023-03-16T15:35:44.900Z,4.00
2023-03-16T15:38:16.671Z,3.95
2023-03-16T15:40:45.610Z,3.85
2023-03-16T15:43:13.868Z,3.42
2023-03-16T15:45:41.881Z,3.65
2023-03-16T15:48:11.034Z,3.40
2023-03-16T15:50:40.862Z,4.03
2023-03-16T15:53:27.665Z,3.30
2023-03-16T15:56:03.268Z,3.60
2023-03-16T15:58:33.343Z,3.47
2023-03-16T16:01:04.125Z,3.03
2023-03-16T16:03:33.643Z,3.20
2023-03-16T16:06:03.105Z,3.03
2023-03-16T16:08:32.318Z,2.90
2023-03-16T16:11:00.868Z,2.95
2023-03-16T16:13:43.808Z,2.90
2023-03-16T16:16:14.526Z,3.10
2023-03-16T16:18:42.820Z,2.60
2023-03-16T16:21:16.958Z,2.60
2023-03-16T16:23:46.727Z,2.78
2023-03-16T16:26:27.927Z,2.97
2023-03-16T16:28:59.791Z,2.70
2023-03-16T16:31:31.508Z,2.83
2023-03-16T16:34:00.028Z,2.50
2023-03-16T16:36:32.163Z,2.33
2023-03-16T16:39:02.773Z,2.35
2023-03-16T16:41:33.157Z,2.08
2023-03-16T16:44:08.071Z,2.17
2023-03-16T16:46:40.104Z,2.13
2023-03-16T16:49:15.120Z,1.95
2023-03-16T16:51:43.670Z,1.58
2023-03-16T16:54:21.290Z,2.10
2023-03-16T16:56:51.272Z,1.73
2023-03-16T16:59:21.126Z,1.75
2023-03-16T17:01:51.727Z,1.65
2023-03-16T17:04:23.154Z,1.55
2023-03-16T17:06:55.092Z,1.80
2023-03-16T17:09:24.868Z,2.03
2023-03-16T17:11:54.050Z,2.30
2023-03-16T17:14:23.698Z,2.00
2023-03-16T17:16:51.855Z,1.88
2023-03-16T17:19:23.161Z,1.90
2023-03-16T17:21:51.580Z,1.90
2023-03-16T17:24:19.363Z,1.77
2023-03-16T17:26:52.163Z,2.05
2023-03-16T17:29:23.102Z,2.00
2023-03-16T17:31:51.351Z,2.00
2023-03-16T17:34:21.422Z,2.30
2023-03-16T17:36:49.475Z,1.80
2023-03-16T17:39:19.006Z,2.03
2023-03-16T17:41:49.368Z,2.10
2023-03-16T17:44:19.947Z,2.10
2023-03-16T17:46:48.037Z,2.78
2023-03-16T17:49:18.374Z,2.80
2023-03-16T17:51:46.652Z,2.70
2023-03-16T17:54:15.541Z,2.40
2023-03-16T17:56:43.572Z,2.92
2023-03-16T17:59:18.316Z,2.45
2023-03-16T18:01:47.442Z,2.85
2023-03-16T18:04:18.275Z,3.78
2023-03-16T18:06:48.226Z,3.35
2023-03-16T18:09:17.556Z,3.00
2023-03-16T18:11:47.892Z,3.45
2023-03-16T18:14:25.370Z,2.67
2023-03-16T18:16:54.686Z,3.58
2023-03-16T18:19:25.545Z,3.13
2023-03-16T18:21:54.594Z,3.72
2023-03-16T18:24:26.023Z,3.92
2023-03-16T18:26:53.662Z,3.78
2023-03-16T18:29:23.266Z,3.50
2023-03-16T18:31:55.041Z,3.40
2023-03-16T18:34:25.333Z,3.38
2023-03-16T18:36:54.872Z,3.88
2023-03-16T18:39:23.314Z,3.30
2023-03-16T18:41:51.103Z,3.47
2023-03-16T18:44:21.797Z,3.83
2023-03-16T18:46:52.815Z,3.35
2023-03-16T18:49:23.773Z,3.75
2023-03-16T18:51:53.551Z,3.65
2023-03-16T18:54:23.540Z,3.92
2023-03-16T18:56:55.298Z,4.20
2023-03-16T18:59:28.099Z,4.45
2023-03-16T19:01:59.143Z,5.10
2023-03-16T19:04:36.301Z,5.45
2023-03-16T19:07:12.402Z,5.55
2023-03-16T19:09:40.613Z,5.25
2023-03-16T19:12:15.950Z,6.22
2023-03-16T19:14:43.872Z,7.28
2023-03-16T19:17:13.362Z,6.70
2023-03-16T19:19:42.266Z,7.47
2023-03-16T19:22:17.479Z,7.78
2023-03-16T19:24:48.673Z,8.30
2023-03-16T19:27:22.849Z,8.40
2023-03-16T19:29:52.314Z,7.95
2023-03-16T19:32:23.522Z,7.88
2023-03-16T19:34:51.283Z,7.60
2023-03-16T19:37:19.776Z,7.30
2023-03-16T19:39:47.945Z,9.63
2023-03-16T19:42:23.271Z,6.80
2023-03-16T19:44:51.700Z,7.35
2023-03-16T19:47:28.925Z,6.68
2023-03-16T19:49:56.884Z,5.75
2023-03-16T19:52:27.341Z,6.07
2023-03-16T19:54:55.498Z,6.65
2023-03-16T19:57:26.341Z,6.90
2023-03-16T19:59:57.938Z,5.72
2023-03-16T20:02:30.805Z,6.25
2023-03-16T20:04:59.166Z,5.68
2023-03-16T20:07:28.259Z,6.05
2023-03-16T20:09:57.263Z,5.93
2023-03-16T20:12:28.164Z,6.30
2023-03-16T20:14:58.296Z,5.55
2023-03-16T20:17:30.271Z,5.65
2023-03-16T20:19:58.312Z,6.05
2023-03-16T20:22:29.971Z,6.05
2023-03-16T20:24:58.294Z,5.97
2023-03-16T20:27:29.993Z,6.57
2023-03-16T20:29:57.882Z,7.40
2023-03-16T20:32:36.453Z,7.40
2023-03-16T20:35:08.468Z,7.03
2023-03-16T20:37:36.768Z,6.47
2023-03-16T20:40:05.306Z,6.18
2023-03-16T20:42:35.540Z,5.88
2023-03-16T20:45:11.031Z,6.55
2023-03-16T20:47:41.692Z,6.30
2023-03-16T20:50:19.396Z,5.88
2023-03-16T20:52:48.010Z,5.68
2023-03-16T20:55:17.781Z,6.40
2023-03-16T20:57:47.584Z,5.38
2023-03-16T21:00:23.975Z,6.68
2023-03-16T21:02:55.148Z,5.43
2023-03-16T21:05:25.843Z,5.68
2023-03-16T21:07:55.085Z,5.50
2023-03-16T21:10:25.927Z,6.15
2023-03-16T21:12:56.548Z,5.88
2023-03-16T21:15:27.991Z,5.68
2023-03-16T21:18:01.621Z,11.95
2023-03-16T21:20:34.363Z,8.98
2023-03-16T21:23:04.739Z,6.85
2023-03-16T21:25:38.602Z,5.78
2023-03-16T21:28:08.416Z,5.40
2023-03-16T21:30:43.957Z,5.50
2023-03-16T21:33:20.889Z,5.68
2023-03-16T21:35:49.143Z,5.50
2023-03-16T21:38:19.436Z,5.47
2023-03-16T21:40:49.436Z,5.78
2023-03-16T21:43:17.546Z,5.90
2023-03-16T21:45:47.129Z,5.72
2023-03-16T21:48:21.561Z,5.20
2023-03-16T21:50:50.683Z,4.90
2023-03-16T21:53:23.874Z,6.80
2023-03-16T21:55:53.509Z,9.00
2023-03-16T21:58:23.303Z,7.97
2023-03-16T22:00:53.095Z,7.38
2023-03-16T22:03:37.749Z,5.70
2023-03-16T22:06:13.618Z,5.28
2023-03-16T22:08:41.797Z,5.50
2023-03-16T22:11:17.946Z,5.72
2023-03-16T22:13:46.589Z,5.22
2023-03-16T22:16:16.573Z,5.45
2023-03-16T22:18:47.508Z,5.70
2023-03-16T22:21:32.698Z,5.60
2023-03-16T22:24:02.287Z,5.90
2023-03-16T22:26:30.842Z,5.60
2023-03-16T22:29:01.259Z,5.20
2023-03-16T22:31:34.470Z,5.95
2023-03-16T22:34:05.840Z,5.68
2023-03-16T22:36:35.299Z,6.25
2023-03-16T22:39:08.338Z,6.43
2023-03-16T22:41:36.551Z,6.25
2023-03-16T22:44:05.615Z,6.10
2023-03-16T22:46:33.340Z,6.32
2023-03-16T22:49:01.830Z,5.93
2023-03-16T22:51:34.400Z,6.85
2023-03-16T22:54:05.496Z,5.82
2023-03-16T22:56:34.245Z,6.97
2023-03-16T22:59:05.782Z,7.70
2023-03-16T23:01:35.930Z,6.53
2023-03-16T23:04:04.541Z,7.00
2023-03-16T23:06:33.657Z,7.25
2023-03-16T23:09:02.572Z,6.10
2023-03-16T23:11:33.058Z,6.07
2023-03-16T23:14:02.195Z,5.82
2023-03-16T23:16:33.958Z,5.75
2023-03-16T23:19:04.378Z,6.00
2023-03-16T23:21:34.902Z,5.47
2023-03-16T23:24:04.644Z,6.40
2023-03-16T23:26:33.289Z,5.47
2023-03-16T23:29:01.465Z,6.07
2023-03-16T23:31:30.758Z,5.63
2023-03-16T23:33:58.647Z,6.45
2023-03-16T23:36:27.195Z,5.68
2023-03-16T23:38:56.466Z,5.68
2023-03-16T23:41:25.765Z,5.88
2023-03-16T23:43:54.669Z,6.00
2023-03-16T23:46:24.822Z,6.50
2023-03-16T23:48:54.396Z,6.97
2023-03-16T23:51:25.481Z,7.50
2023-03-16T23:53:53.441Z,6.82
2023-03-16T23:56:23.166Z,7.00
2023-03-16T23:58:51.142Z,7.20
